createdAt,value
2018-02-07T00:00:08.456Z,-0.26
2018-02-07T00:01:11.380Z,-0.23
2018-02-07T00:02:14.511Z,-0.25
2018-02-07T00:03:17.788Z,-0.35
2018-02-07T00:04:21.265Z,-0.36
2018-02-07T00:05:24.495Z,-0.40
2018-02-07T00:06:30.321Z,-0.45
2018-02-07T00:07:33.355Z,-0.44
2018-02-07T00:08:36.260Z,-0.48
2018-02-07T00:09:39.495Z,-0.50
2018-02-07T00:10:42.454Z,-0.49
2018-02-07T00:11:45.434Z,-0.43
2018-02-07T00:12:48.346Z,-0.54
2018-02-07T00:13:51.297Z,-0.51
2018-02-07T00:14:54.235Z,-0.58
2018-02-07T00:15:57.627Z,-0.52
2018-02-07T00:17:00.548Z,-0.50
2018-02-07T00:18:03.473Z,-0.48
2018-02-07T00:19:06.384Z,-0.44
2018-02-07T00:20:09.294Z,-0.47
2018-02-07T00:21:12.259Z,-0.45
2018-02-07T00:22:15.646Z,-0.42
2018-02-07T00:23:18.570Z,-0.46
2018-02-07T00:24:21.487Z,-0.47
2018-02-07T00:25:24.391Z,-0.44
2018-02-07T00:26:27.313Z,-0.45
2018-02-07T00:27:30.303Z,-0.39
2018-02-07T00:28:33.544Z,-0.34
2018-02-07T00:29:36.454Z,-0.32
2018-02-07T00:30:39.370Z,-0.36
2018-02-07T00:31:42.348Z,-0.51
2018-02-07T00:32:45.269Z,-0.53
2018-02-07T00:33:48.177Z,-0.45
2018-02-07T00:34:51.499Z,-0.39
2018-02-07T00:35:54.399Z,-0.35
2018-02-07T00:36:57.292Z,-0.29
2018-02-07T00:38:00.243Z,-0.26
2018-02-07T00:39:03.354Z,-0.28
2018-02-07T00:40:06.434Z,-0.33
2018-02-07T00:41:09.755Z,-0.35
2018-02-07T00:42:12.681Z,-0.35
2018-02-07T00:43:15.699Z,-0.38
2018-02-07T00:44:18.698Z,-0.47
2018-02-07T00:45:21.706Z,-0.45
2018-02-07T00:46:24.639Z,-0.48
2018-02-07T00:47:27.984Z,-0.46
2018-02-07T00:48:30.812Z,-0.41
2018-02-07T00:49:33.714Z,-0.38
2018-02-07T00:50:36.627Z,-0.35
2018-02-07T00:51:39.565Z,-0.34
2018-02-07T00:52:42.478Z,-0.36
2018-02-07T00:53:45.667Z,-0.37
2018-02-07T00:54:48.588Z,-0.50
2018-02-07T00:55:51.498Z,-0.54
2018-02-07T00:56:54.446Z,-0.57
2018-02-07T00:57:57.362Z,-0.54
2018-02-07T00:59:00.283Z,-0.47
2018-02-07T01:00:03.514Z,-0.43
2018-02-07T01:01:06.454Z,-0.50
2018-02-07T01:02:09.372Z,-0.55
2018-02-07T01:03:12.284Z,-0.64
2018-02-07T01:04:15.202Z,-0.73
2018-02-07T01:05:18.275Z,-0.75
2018-02-07T01:06:21.672Z,-0.74
2018-02-07T01:07:24.576Z,-0.75
2018-02-07T01:08:27.494Z,-0.71
2018-02-07T01:09:30.456Z,-0.63
2018-02-07T01:10:33.360Z,-0.58
2018-02-07T01:11:36.286Z,-0.56
2018-02-07T01:12:39.514Z,-0.56
2018-02-07T01:13:42.393Z,-0.49
2018-02-07T01:14:45.317Z,-0.47
2018-02-07T01:15:48.240Z,-0.42
2018-02-07T01:16:51.145Z,-0.44
2018-02-07T01:17:54.076Z,-0.42
2018-02-07T01:18:57.272Z,-0.36
2018-02-07T01:20:00.183Z,-0.31
2018-02-07T01:21:03.111Z,-0.27
2018-02-07T01:22:06.086Z,-0.24
2018-02-07T01:23:09.023Z,-0.23
2018-02-07T01:24:11.958Z,-0.23
2018-02-07T01:25:15.213Z,-0.33
2018-02-07T01:26:18.171Z,-0.36
2018-02-07T01:27:21.177Z,-0.34
2018-02-07T01:28:24.143Z,-0.33
2018-02-07T01:29:27.059Z,-0.38
2018-02-07T01:30:29.978Z,-0.36
2018-02-07T01:31:33.176Z,-0.40
2018-02-07T01:32:36.047Z,-0.47
2018-02-07T01:33:38.901Z,-0.49
2018-02-07T01:34:41.797Z,-0.48
2018-02-07T01:35:44.685Z,-0.43
2018-02-07T01:36:47.540Z,-0.39
2018-02-07T01:37:50.805Z,-0.34
2018-02-07T01:38:53.678Z,-0.32
2018-02-07T01:39:56.560Z,-0.35
2018-02-07T01:40:59.475Z,-0.32
2018-02-07T01:42:02.441Z,-0.34
2018-02-07T01:43:05.424Z,-0.47
2018-02-07T01:44:08.664Z,-0.47
2018-02-07T01:45:11.600Z,-0.43
2018-02-07T01:46:14.486Z,-0.39
2018-02-07T01:47:17.359Z,-0.41
2018-02-07T01:48:20.295Z,-0.38
2018-02-07T01:49:23.214Z,-0.37
2018-02-07T01:50:26.422Z,-0.39
2018-02-07T01:51:29.366Z,-0.39
2018-02-07T01:52:32.339Z,-0.36
2018-02-07T01:53:35.271Z,-0.29
2018-02-07T01:54:38.214Z,-0.25
2018-02-07T01:55:41.154Z,-0.28
2018-02-07T01:56:44.406Z,-0.28
2018-02-07T01:57:47.314Z,-0.24
2018-02-07T01:58:50.271Z,-0.24
2018-02-07T01:59:53.163Z,-0.23
2018-02-07T02:00:56.191Z,-0.21
2018-02-07T02:01:59.237Z,-0.19
2018-02-07T02:03:02.536Z,-0.25
2018-02-07T02:04:05.452Z,-0.26
2018-02-07T02:05:08.373Z,-0.30
2018-02-07T02:06:11.322Z,-0.32
2018-02-07T02:07:14.361Z,-0.32
2018-02-07T02:08:17.259Z,-0.33
2018-02-07T02:09:20.469Z,-0.31
2018-02-07T02:10:23.391Z,-0.24
2018-02-07T02:11:26.363Z,-0.24
2018-02-07T02:12:29.257Z,-0.23
2018-02-07T02:13:32.175Z,-0.19
2018-02-07T02:14:35.108Z,-0.16
2018-02-07T02:15:38.228Z,-0.14
2018-02-07T02:16:41.081Z,-0.16
2018-02-07T02:17:43.899Z,-0.16
2018-02-07T02:18:46.744Z,-0.19
2018-02-07T02:19:49.614Z,-0.20
2018-02-07T02:20:52.528Z,-0.24
2018-02-07T02:21:55.740Z,-0.40
2018-02-07T02:22:58.694Z,-0.48
2018-02-07T02:24:01.622Z,-0.47
2018-02-07T02:25:04.558Z,-0.55
2018-02-07T02:26:07.481Z,-0.51
2018-02-07T02:27:10.459Z,-0.49
2018-02-07T02:28:13.670Z,-0.49
2018-02-07T02:29:16.609Z,-0.53
2018-02-07T02:30:19.534Z,-0.50
2018-02-07T02:31:22.359Z,-0.47
2018-02-07T02:32:25.309Z,-0.46
2018-02-07T02:33:28.238Z,-0.40
2018-02-07T02:34:31.527Z,-0.46
2018-02-07T02:35:34.483Z,-0.44
2018-02-07T02:36:37.394Z,-0.43
2018-02-07T02:37:40.311Z,-0.39
2018-02-07T02:38:43.219Z,-0.40
2018-02-07T02:39:46.141Z,-0.34
2018-02-07T02:40:49.379Z,-0.29
2018-02-07T02:41:52.292Z,-0.33
2018-02-07T02:42:55.259Z,-0.38
2018-02-07T02:43:58.160Z,-0.36
2018-02-07T02:45:01.075Z,-0.30
2018-02-07T02:46:04.064Z,-0.27
2018-02-07T02:47:07.255Z,-0.26
2018-02-07T02:48:10.185Z,-0.28
2018-02-07T02:49:13.134Z,-0.25
2018-02-07T02:50:16.094Z,-0.21
2018-02-07T02:51:19.022Z,-0.21
2018-02-07T02:52:21.971Z,-0.18
2018-02-07T02:53:25.201Z,-0.17
2018-02-07T02:54:28.127Z,-0.17
2018-02-07T02:55:31.055Z,-0.19
2018-02-07T02:56:34.782Z,-0.23
2018-02-07T02:57:37.696Z,-0.22
2018-02-07T02:58:40.643Z,-0.24
2018-02-07T02:59:43.889Z,-0.26
2018-02-07T03:00:46.798Z,-0.27
2018-02-07T03:01:49.742Z,-0.28
2018-02-07T03:02:52.634Z,-0.32
2018-02-07T03:03:55.570Z,-0.27
2018-02-07T03:04:58.504Z,-0.36
2018-02-07T03:06:01.437Z,-0.38
2018-02-07T03:07:04.518Z,-0.38
2018-02-07T03:08:07.439Z,-0.39
2018-02-07T03:09:10.405Z,-0.33
2018-02-07T03:10:13.351Z,-0.26
2018-02-07T03:11:16.639Z,-0.28
2018-02-07T03:12:19.660Z,-0.32
2018-02-07T03:13:22.587Z,-0.29
2018-02-07T03:14:25.550Z,-0.28
2018-02-07T03:15:28.495Z,-0.25
2018-02-07T03:16:31.446Z,-0.22
2018-02-07T03:17:34.662Z,-0.18
2018-02-07T03:18:37.582Z,-0.26
2018-02-07T03:19:40.503Z,-0.31
2018-02-07T03:20:43.863Z,-0.34
2018-02-07T03:21:46.989Z,-0.28
2018-02-07T03:22:49.912Z,-0.24
2018-02-07T03:23:53.154Z,-0.22
2018-02-07T03:24:56.081Z,-0.19
2018-02-07T03:25:58.970Z,-0.16
2018-02-07T03:27:01.937Z,-0.15
2018-02-07T03:28:04.848Z,-0.20
2018-02-07T03:29:07.860Z,-0.26
2018-02-07T03:30:11.233Z,-0.34
2018-02-07T03:31:14.171Z,-0.30
2018-02-07T03:32:17.103Z,-0.29
2018-02-07T03:33:20.018Z,-0.30
2018-02-07T03:34:23.227Z,-0.33
2018-02-07T03:35:26.118Z,-0.38
2018-02-07T03:36:29.388Z,-0.41
2018-02-07T03:37:32.411Z,-0.45
2018-02-07T03:38:35.495Z,-0.47
2018-02-07T03:39:38.431Z,-0.46
2018-02-07T03:40:41.376Z,-0.43
2018-02-07T03:41:44.263Z,-0.42
2018-02-07T03:42:47.454Z,-0.38
2018-02-07T03:43:50.422Z,-0.28
2018-02-07T03:44:53.351Z,-0.21
2018-02-07T03:45:56.307Z,-0.21
2018-02-07T03:46:59.227Z,-0.24
2018-02-07T03:48:02.166Z,-0.25
2018-02-07T03:49:05.386Z,-0.23
2018-02-07T03:50:08.300Z,-0.19
2018-02-07T03:51:11.218Z,-0.21
2018-02-07T03:52:14.127Z,-0.28
2018-02-07T03:53:17.047Z,-0.30
2018-02-07T03:54:19.992Z,-0.34
2018-02-07T03:55:23.238Z,-0.34
2018-02-07T03:56:26.171Z,-0.27
2018-02-07T03:57:29.156Z,-0.21
2018-02-07T03:58:32.080Z,-0.19
2018-02-07T03:59:35.023Z,-0.18
2018-02-07T04:00:37.965Z,-0.17
2018-02-07T04:01:41.188Z,-0.14
2018-02-07T04:02:44.132Z,-0.14
2018-02-07T04:03:47.072Z,-0.22
2018-02-07T04:04:50.023Z,-0.21
2018-02-07T04:05:52.957Z,-0.26
2018-02-07T04:06:55.870Z,-0.35
2018-02-07T04:07:59.130Z,-0.35
2018-02-07T04:09:02.035Z,-0.28
2018-02-07T04:10:05.004Z,-0.25
2018-02-07T04:11:08.031Z,-0.29
2018-02-07T04:12:11.169Z,-0.34
2018-02-07T04:13:14.080Z,-0.41
2018-02-07T04:14:17.293Z,-0.44
2018-02-07T04:15:20.230Z,-0.35
2018-02-07T04:16:23.209Z,-0.33
2018-02-07T04:17:26.127Z,-0.38
2018-02-07T04:18:29.109Z,-0.44
2018-02-07T04:19:32.067Z,-0.45
2018-02-07T04:20:35.004Z,-0.41
2018-02-07T04:21:38.007Z,-0.45
2018-02-07T04:22:40.942Z,-0.41
2018-02-07T04:23:43.868Z,-0.36
2018-02-07T04:24:46.807Z,-0.34
2018-02-07T04:25:50.016Z,-0.32
2018-02-07T04:26:52.919Z,-0.33
2018-02-07T04:27:55.891Z,-0.37
2018-02-07T04:28:58.830Z,-0.33
2018-02-07T04:30:01.769Z,-0.29
2018-02-07T04:31:04.730Z,-0.27
2018-02-07T04:32:07.967Z,-0.30
2018-02-07T04:33:10.896Z,-0.37
2018-02-07T04:34:13.794Z,-0.47
2018-02-07T04:35:16.649Z,-0.44
2018-02-07T04:36:19.518Z,-0.40
2018-02-07T04:37:22.500Z,-0.38
2018-02-07T04:38:25.778Z,-0.37
2018-02-07T04:39:28.706Z,-0.36
2018-02-07T04:40:31.643Z,-0.33
2018-02-07T04:41:34.550Z,-0.23
2018-02-07T04:42:37.520Z,-0.19
2018-02-07T04:43:40.444Z,-0.23
2018-02-07T04:44:43.671Z,-0.22
2018-02-07T04:45:46.591Z,-0.19
2018-02-07T04:46:49.510Z,-0.18
2018-02-07T04:47:52.433Z,-0.25
2018-02-07T04:48:55.351Z,-0.25
2018-02-07T04:49:58.270Z,-0.25
2018-02-07T04:51:01.661Z,-0.27
2018-02-07T04:52:04.622Z,-0.28
2018-02-07T04:53:07.570Z,-0.39
2018-02-07T04:54:10.496Z,-0.35
2018-02-07T04:55:13.436Z,-0.28
2018-02-07T04:56:16.360Z,-0.21
2018-02-07T04:57:19.601Z,-0.18
2018-02-07T04:58:22.509Z,-0.19
2018-02-07T04:59:25.468Z,-0.25
2018-02-07T05:00:28.412Z,-0.23
2018-02-07T05:01:31.324Z,-0.22
2018-02-07T05:02:34.217Z,-0.28
2018-02-07T05:03:37.414Z,-0.26
2018-02-07T05:04:40.329Z,-0.27
2018-02-07T05:05:43.246Z,-0.24
2018-02-07T05:06:46.155Z,-0.27
2018-02-07T05:07:49.067Z,-0.30
2018-02-07T05:08:51.990Z,-0.34
2018-02-07T05:09:55.178Z,-0.41
2018-02-07T05:10:58.121Z,-0.35
2018-02-07T05:12:01.062Z,-0.31
2018-02-07T05:13:03.991Z,-0.39
2018-02-07T05:14:06.929Z,-0.40
2018-02-07T05:15:09.840Z,-0.39
2018-02-07T05:16:13.056Z,-0.35
2018-02-07T05:17:15.972Z,-0.36
2018-02-07T05:18:18.903Z,-0.39
2018-02-07T05:19:21.846Z,-0.41
2018-02-07T05:20:24.759Z,-0.42
2018-02-07T05:21:27.717Z,-0.39
2018-02-07T05:22:30.912Z,-0.41
2018-02-07T05:23:33.846Z,-0.40
2018-02-07T05:24:36.812Z,-0.38
2018-02-07T05:25:39.742Z,-0.54
2018-02-07T05:26:42.639Z,-0.50
2018-02-07T05:27:45.721Z,-0.38
2018-02-07T05:28:48.931Z,-0.34
2018-02-07T05:29:51.874Z,-0.37
2018-02-07T05:30:54.837Z,-0.48
2018-02-07T05:31:57.739Z,-0.54
2018-02-07T05:33:00.687Z,-0.55
2018-02-07T05:34:03.599Z,-0.58
2018-02-07T05:35:06.894Z,-0.55
2018-02-07T05:36:09.821Z,-0.44
2018-02-07T05:37:12.736Z,-0.38
2018-02-07T05:38:15.604Z,-0.41
2018-02-07T05:39:18.461Z,-0.44
2018-02-07T05:40:21.335Z,-0.50
2018-02-07T05:41:24.481Z,-0.46
2018-02-07T05:42:27.320Z,-0.43
2018-02-07T05:43:30.119Z,-0.35
2018-02-07T05:44:33.072Z,-0.30
2018-02-07T05:45:36.020Z,-0.34
2018-02-07T05:46:38.974Z,-0.32
2018-02-07T05:47:42.186Z,-0.28
2018-02-07T05:48:45.125Z,-0.24
2018-02-07T05:49:48.198Z,-0.29
2018-02-07T05:50:51.150Z,-0.33
2018-02-07T05:51:54.104Z,-0.34
2018-02-07T05:52:57.046Z,-0.34
2018-02-07T05:54:00.045Z,-0.32
2018-02-07T05:55:02.990Z,-0.28
2018-02-07T05:56:06.091Z,-0.29
2018-02-07T05:57:08.972Z,-0.34
2018-02-07T05:58:11.886Z,-0.32
2018-02-07T05:59:15.132Z,-0.33
2018-02-07T06:00:18.090Z,-0.29
2018-02-07T06:01:21.002Z,-0.31
2018-02-07T06:02:23.936Z,-0.33
2018-02-07T06:03:26.880Z,-0.32
2018-02-07T06:04:29.797Z,-0.32
2018-02-07T06:05:33.164Z,-0.36
2018-02-07T06:06:36.266Z,-0.34
2018-02-07T06:07:39.553Z,-0.29
2018-02-07T06:08:42.578Z,-0.27
2018-02-07T06:09:45.551Z,-0.28
2018-02-07T06:10:48.510Z,-0.26
2018-02-07T06:11:51.802Z,-0.21
2018-02-07T06:12:54.843Z,-0.19
2018-02-07T06:13:57.842Z,-0.23
2018-02-07T06:15:00.857Z,-0.19
2018-02-07T06:16:03.790Z,-0.17
2018-02-07T06:17:06.761Z,-0.15
2018-02-07T06:18:10.084Z,-0.15
2018-02-07T06:19:13.112Z,-0.18
2018-02-07T06:20:16.049Z,-0.19
2018-02-07T06:21:19.259Z,-0.20
2018-02-07T06:22:22.210Z,-0.17
2018-02-07T06:23:25.169Z,-0.15
2018-02-07T06:24:28.417Z,-0.14
2018-02-07T06:25:31.806Z,-0.16
2018-02-07T06:26:34.699Z,-0.16
2018-02-07T06:27:37.720Z,-0.17
2018-02-07T06:28:40.643Z,-0.17
2018-02-07T06:29:43.588Z,-0.17
2018-02-07T06:30:46.788Z,-0.17
2018-02-07T06:31:49.768Z,-0.13
2018-02-07T06:32:52.693Z,-0.12
2018-02-07T06:33:55.567Z,-0.13
2018-02-07T06:34:58.543Z,-0.13
2018-02-07T06:36:01.619Z,-0.15
2018-02-07T06:37:04.934Z,-0.11
2018-02-07T06:38:07.880Z,-0.10
2018-02-07T06:39:10.820Z,-0.10
2018-02-07T06:40:13.779Z,-0.13
2018-02-07T06:41:16.698Z,-0.15
2018-02-07T06:42:19.639Z,-0.13
2018-02-07T06:43:23.022Z,-0.19
2018-02-07T06:44:25.968Z,-0.20
2018-02-07T06:45:28.907Z,-0.21
2018-02-07T06:46:31.844Z,-0.26
2018-02-07T06:47:34.914Z,-0.22
2018-02-07T06:48:37.870Z,-0.24
2018-02-07T06:49:41.142Z,-0.16
2018-02-07T06:50:44.106Z,-0.13
2018-02-07T06:51:47.033Z,-0.13
2018-02-07T06:52:49.960Z,-0.16
2018-02-07T06:53:52.867Z,-0.23
2018-02-07T06:54:55.822Z,-0.26
2018-02-07T06:55:59.205Z,-0.30
2018-02-07T06:57:02.115Z,-0.31
2018-02-07T06:58:05.168Z,-0.25
2018-02-07T06:59:08.095Z,-0.26
2018-02-07T07:00:11.057Z,-0.24
2018-02-07T07:01:14.036Z,-0.27
2018-02-07T07:02:16.976Z,-0.31
2018-02-07T07:03:19.918Z,-0.27
2018-02-07T07:04:22.848Z,-0.22
2018-02-07T07:05:25.786Z,-0.14
2018-02-07T07:06:28.731Z,-0.08
2018-02-07T07:07:31.841Z,-0.10
2018-02-07T07:08:35.316Z,-0.14
2018-02-07T07:09:38.234Z,-0.26
2018-02-07T07:10:41.234Z,-0.21
2018-02-07T07:11:44.244Z,-0.19
2018-02-07T07:12:47.178Z,-0.22
2018-02-07T07:13:50.130Z,-0.16
2018-02-07T07:14:53.468Z,-0.11
2018-02-07T07:15:56.395Z,-0.12
2018-02-07T07:16:59.333Z,-0.07
2018-02-07T07:18:02.264Z,-0.06
2018-02-07T07:19:05.210Z,0.04
2018-02-07T07:20:08.148Z,0.11
2018-02-07T07:21:11.548Z,0.12
2018-02-07T07:22:14.462Z,0.20
2018-02-07T07:23:17.590Z,0.24
2018-02-07T07:24:20.514Z,0.23
2018-02-07T07:25:23.477Z,0.16
2018-02-07T07:26:26.414Z,0.12
2018-02-07T07:27:29.973Z,0.09
2018-02-07T07:28:32.936Z,0.11
2018-02-07T07:29:35.905Z,0.12
2018-02-07T07:30:38.840Z,0.04
2018-02-07T07:31:41.761Z,-0.11
2018-02-07T07:32:44.675Z,-0.29
2018-02-07T07:33:48.156Z,-0.23
2018-02-07T07:34:51.187Z,-0.21
2018-02-07T07:35:54.110Z,-0.22
2018-02-07T07:36:57.046Z,-0.17
2018-02-07T07:38:00.031Z,-0.13
2018-02-07T07:39:03.186Z,-0.11
2018-02-07T07:40:06.585Z,-0.11
2018-02-07T07:41:09.540Z,-0.10
2018-02-07T07:42:12.609Z,-0.04
2018-02-07T07:43:15.460Z,-0.04
2018-02-07T07:44:18.442Z,-0.09
2018-02-07T07:45:21.357Z,-0.01
2018-02-07T07:46:24.578Z,0.07
2018-02-07T07:47:27.499Z,0.06
2018-02-07T07:48:30.519Z,0.07
2018-02-07T07:49:33.650Z,0.10
2018-02-07T07:50:36.585Z,0.13
2018-02-07T07:51:39.524Z,0.17
2018-02-07T07:52:42.913Z,0.14
2018-02-07T07:53:45.873Z,0.14
2018-02-07T07:54:49.079Z,0.17
2018-02-07T07:55:51.999Z,0.20
2018-02-07T07:56:54.899Z,0.24
2018-02-07T07:57:57.814Z,0.27
2018-02-07T07:59:01.317Z,0.23
2018-02-07T08:00:04.287Z,0.26
2018-02-07T08:01:07.340Z,0.24
2018-02-07T08:02:10.318Z,0.17
2018-02-07T08:03:13.324Z,0.14
2018-02-07T08:04:16.255Z,0.15
2018-02-07T08:05:19.524Z,0.08
2018-02-07T08:06:22.494Z,0.04
2018-02-07T08:07:25.446Z,-0.01
2018-02-07T08:08:28.391Z,-0.01
2018-02-07T08:09:31.420Z,0.07
2018-02-07T08:10:34.370Z,0.20
2018-02-07T08:11:37.591Z,0.22
2018-02-07T08:12:40.527Z,0.15
2018-02-07T08:13:43.449Z,0.06
2018-02-07T08:14:46.371Z,0.13
2018-02-07T08:15:49.308Z,0.10
2018-02-07T08:16:52.275Z,0.05
2018-02-07T08:17:55.555Z,0.08
2018-02-07T08:18:58.498Z,0.04
2018-02-07T08:20:01.455Z,-0.01
2018-02-07T08:21:04.299Z,-0.03
2018-02-07T08:22:07.138Z,0.02
2018-02-07T08:23:09.981Z,0.13
2018-02-07T08:24:13.236Z,0.21
2018-02-07T08:25:16.175Z,0.31
2018-02-07T08:26:19.151Z,0.34
2018-02-07T08:27:22.001Z,0.30
2018-02-07T08:28:25.036Z,0.21
2018-02-07T08:29:27.985Z,0.11
2018-02-07T08:30:31.403Z,0.15
2018-02-07T08:31:34.355Z,0.17
2018-02-07T08:32:37.952Z,0.14
2018-02-07T08:33:40.930Z,0.18
2018-02-07T08:34:43.930Z,0.24
2018-02-07T08:35:46.942Z,0.26
2018-02-07T08:36:50.032Z,0.16
2018-02-07T08:37:52.945Z,0.28
2018-02-07T08:38:55.917Z,0.22
2018-02-07T08:39:58.878Z,0.17
2018-02-07T08:41:02.132Z,0.20
2018-02-07T08:42:05.102Z,0.27
2018-02-07T08:43:08.369Z,0.30
2018-02-07T08:44:11.350Z,0.23
2018-02-07T08:45:14.330Z,0.20
2018-02-07T08:46:17.262Z,0.23
2018-02-07T08:47:20.250Z,0.32
2018-02-07T08:48:23.218Z,0.36
2018-02-07T08:49:26.583Z,0.30
2018-02-07T08:50:29.515Z,0.37
2018-02-07T08:51:32.651Z,0.44
2018-02-07T08:52:35.578Z,0.49
2018-02-07T08:53:38.516Z,0.49
2018-02-07T08:54:41.555Z,0.39
2018-02-07T08:55:44.986Z,0.40
2018-02-07T08:56:48.000Z,0.44
2018-02-07T08:57:50.913Z,0.41
2018-02-07T08:58:53.875Z,0.48
2018-02-07T08:59:56.790Z,0.56
2018-02-07T09:00:59.711Z,0.66
2018-02-07T09:02:02.994Z,0.65
2018-02-07T09:03:06.007Z,0.63
2018-02-07T09:04:08.922Z,0.61
2018-02-07T09:05:11.905Z,0.64
2018-02-07T09:06:14.886Z,0.66
2018-02-07T09:07:17.858Z,0.73
2018-02-07T09:08:21.327Z,0.79
2018-02-07T09:09:24.271Z,0.86
2018-02-07T09:10:27.212Z,0.88
2018-02-07T09:11:30.133Z,0.93
2018-02-07T09:12:33.142Z,1.02
2018-02-07T09:13:36.149Z,1.03
2018-02-07T09:14:39.425Z,1.10
2018-02-07T09:15:42.431Z,1.09
2018-02-07T09:16:45.372Z,1.05
2018-02-07T09:17:48.367Z,1.13
2018-02-07T09:18:51.334Z,1.16
2018-02-07T09:19:54.362Z,1.21
2018-02-07T09:20:57.629Z,1.25
2018-02-07T09:22:00.538Z,1.23
2018-02-07T09:23:03.492Z,1.26
2018-02-07T09:24:06.478Z,1.37
2018-02-07T09:25:09.590Z,1.45
2018-02-07T09:26:12.729Z,1.35
2018-02-07T09:27:16.588Z,1.28
2018-02-07T09:28:19.564Z,1.28
2018-02-07T09:29:22.654Z,1.20
2018-02-07T09:30:26.341Z,1.27
2018-02-07T09:31:30.018Z,1.35
2018-02-07T09:32:33.090Z,1.45
2018-02-07T09:33:36.543Z,1.55
2018-02-07T09:34:40.703Z,1.64
2018-02-07T09:35:44.870Z,1.73
2018-02-07T09:36:49.238Z,1.78
2018-02-07T09:37:53.303Z,1.85
2018-02-07T09:38:56.535Z,1.89
2018-02-07T09:40:00.240Z,1.99
2018-02-07T09:41:03.420Z,2.05
2018-02-07T09:42:06.551Z,2.07
2018-02-07T09:43:10.412Z,2.07
2018-02-07T09:44:13.991Z,2.12
2018-02-07T09:45:17.373Z,1.82
2018-02-07T09:46:21.572Z,1.72
2018-02-07T09:47:24.730Z,1.78
2018-02-07T09:48:28.342Z,1.89
2018-02-07T09:49:31.791Z,1.89
2018-02-07T09:50:36.218Z,1.85
2018-02-07T09:51:39.263Z,1.90
2018-02-07T09:52:42.757Z,1.88
2018-02-07T09:53:48.650Z,1.94
2018-02-07T09:54:54.381Z,2.09
2018-02-07T09:55:59.314Z,2.19
2018-02-07T09:57:02.999Z,2.38
2018-02-07T09:58:06.932Z,2.42
2018-02-07T09:59:12.210Z,2.44
2018-02-07T10:00:15.664Z,2.39
2018-02-07T10:01:19.420Z,2.47
2018-02-07T10:02:22.889Z,2.42
2018-02-07T10:03:26.512Z,2.40
2018-02-07T10:04:30.349Z,2.44
2018-02-07T10:05:34.882Z,2.55
2018-02-07T10:06:38.116Z,2.55
2018-02-07T10:07:42.129Z,2.24
2018-02-07T10:08:45.557Z,2.08
2018-02-07T10:09:48.520Z,2.08
2018-02-07T10:10:51.736Z,2.08
2018-02-07T10:11:55.489Z,2.22
2018-02-07T10:12:58.418Z,2.45
2018-02-07T10:14:01.313Z,2.10
2018-02-07T10:15:04.227Z,2.02
2018-02-07T10:16:07.139Z,2.00
2018-02-07T10:17:10.124Z,1.88
2018-02-07T10:18:13.262Z,1.82
2018-02-07T10:19:16.027Z,1.75
2018-02-07T10:20:18.802Z,1.94
2018-02-07T10:21:21.583Z,1.99
2018-02-07T10:22:24.400Z,2.00
2018-02-07T10:23:27.324Z,2.21
2018-02-07T10:24:30.568Z,2.45
2018-02-07T10:25:33.544Z,2.77
2018-02-07T10:26:36.536Z,2.96
2018-02-07T10:27:39.437Z,3.10
2018-02-07T10:28:42.382Z,3.53
2018-02-07T10:29:45.336Z,4.28
2018-02-07T10:30:48.719Z,4.59
2018-02-07T10:31:51.685Z,4.54
2018-02-07T10:32:54.773Z,4.30
2018-02-07T10:33:57.703Z,3.80
2018-02-07T10:35:00.693Z,3.64
2018-02-07T10:36:03.668Z,3.47
2018-02-07T10:37:07.089Z,3.41
2018-02-07T10:38:09.939Z,3.45
2018-02-07T10:39:12.882Z,3.68
2018-02-07T10:40:15.805Z,3.62
2018-02-07T10:41:18.780Z,3.83
2018-02-07T10:42:21.700Z,3.93
2018-02-07T10:43:25.088Z,4.03
2018-02-07T10:44:28.285Z,3.98
2018-02-07T10:45:31.168Z,4.05
2018-02-07T10:46:34.015Z,4.10
2018-02-07T10:47:36.916Z,4.09
2018-02-07T10:48:39.749Z,4.14
2018-02-07T10:49:43.311Z,4.26
2018-02-07T10:50:46.306Z,4.39
2018-02-07T10:51:49.273Z,4.37
2018-02-07T10:52:52.326Z,4.36
2018-02-07T10:53:55.336Z,4.44
2018-02-07T10:54:58.356Z,4.45
2018-02-07T10:56:01.641Z,4.55
2018-02-07T10:57:04.595Z,4.86
2018-02-07T10:58:07.586Z,5.01
2018-02-07T10:59:10.621Z,4.96
2018-02-07T11:00:13.696Z,4.76
2018-02-07T11:01:16.742Z,4.67
2018-02-07T11:02:20.200Z,4.64
2018-02-07T11:03:23.218Z,4.70
2018-02-07T11:04:26.154Z,4.87
2018-02-07T11:05:29.115Z,4.86
2018-02-07T11:06:32.033Z,5.02
2018-02-07T11:07:34.991Z,5.23
2018-02-07T11:08:38.393Z,5.10
2018-02-07T11:09:41.393Z,5.03
2018-02-07T11:10:44.272Z,5.05
2018-02-07T11:11:47.219Z,5.13
2018-02-07T11:12:50.201Z,5.28
2018-02-07T11:13:53.205Z,5.01
2018-02-07T11:14:56.524Z,4.63
2018-02-07T11:16:00.477Z,4.38
2018-02-07T11:17:08.314Z,4.16
2018-02-07T11:18:11.440Z,4.27
2018-02-07T11:19:14.509Z,4.19
2018-02-07T11:20:18.222Z,4.06
2018-02-07T11:21:21.617Z,4.34
2018-02-07T11:22:24.994Z,4.37
2018-02-07T11:23:28.626Z,4.80
2018-02-07T11:24:31.605Z,5.03
2018-02-07T11:25:34.511Z,4.52
2018-02-07T11:26:37.650Z,4.08
2018-02-07T11:27:41.033Z,4.18
2018-02-07T11:28:45.796Z,4.09
2018-02-07T11:29:48.826Z,3.98
2018-02-07T11:30:51.951Z,3.89
2018-02-07T11:31:55.626Z,3.76
2018-02-07T11:32:59.013Z,3.70
2018-02-07T11:34:02.418Z,3.97
2018-02-07T11:35:05.369Z,4.32
2018-02-07T11:36:08.461Z,4.68
2018-02-07T11:37:11.535Z,4.84
2018-02-07T11:38:14.455Z,4.66
2018-02-07T11:39:17.418Z,4.64
2018-02-07T11:40:21.017Z,4.71
2018-02-07T11:41:24.091Z,4.66
2018-02-07T11:42:27.112Z,4.63
2018-02-07T11:43:30.143Z,4.71
2018-02-07T11:44:33.683Z,4.82
2018-02-07T11:45:37.672Z,4.17
2018-02-07T11:46:40.887Z,4.39
2018-02-07T11:47:43.784Z,4.61
2018-02-07T11:48:47.106Z,4.77
2018-02-07T11:49:50.397Z,4.88
2018-02-07T11:50:53.633Z,4.76
2018-02-07T11:51:57.374Z,4.61
2018-02-07T11:53:00.884Z,4.52
2018-02-07T11:54:05.514Z,4.57
2018-02-07T11:55:08.911Z,4.70
2018-02-07T11:56:12.580Z,4.88
2018-02-07T11:57:15.848Z,5.02
2018-02-07T11:58:20.024Z,4.72
2018-02-07T11:59:23.403Z,4.53
2018-02-07T12:00:26.696Z,4.60
2018-02-07T12:01:29.811Z,4.65
2018-02-07T12:02:32.886Z,4.72
2018-02-07T12:03:35.880Z,4.72
2018-02-07T12:04:39.106Z,4.67
2018-02-07T12:05:42.397Z,4.71
2018-02-07T12:06:45.439Z,4.60
2018-02-07T12:07:48.471Z,4.51
2018-02-07T12:08:51.774Z,4.59
2018-02-07T12:09:54.608Z,4.54
2018-02-07T12:10:59.681Z,4.41
2018-02-07T12:12:03.013Z,4.28
2018-02-07T12:13:06.194Z,4.32
2018-02-07T12:14:09.515Z,4.50
2018-02-07T12:15:14.738Z,4.54
2018-02-07T12:16:18.401Z,4.64
2018-02-07T12:17:22.119Z,4.77
2018-02-07T12:18:25.773Z,4.65
2018-02-07T12:19:29.513Z,4.64
2018-02-07T12:20:32.494Z,4.56
2018-02-07T12:21:35.820Z,4.55
2018-02-07T12:22:39.216Z,4.71
2018-02-07T12:23:42.964Z,4.89
2018-02-07T12:24:46.979Z,4.81
2018-02-07T12:25:50.204Z,4.85
2018-02-07T12:26:53.219Z,4.97
2018-02-07T12:27:56.570Z,5.17
2018-02-07T12:29:01.236Z,5.41
2018-02-07T12:30:05.262Z,5.40
2018-02-07T12:31:09.038Z,5.47
2018-02-07T12:32:12.866Z,5.58
2018-02-07T12:33:16.873Z,5.52
2018-02-07T12:34:21.350Z,5.83
2018-02-07T12:35:26.204Z,5.98
2018-02-07T12:36:30.187Z,6.04
2018-02-07T12:37:35.004Z,6.55
2018-02-07T12:38:39.066Z,7.29
2018-02-07T12:39:42.238Z,7.74
2018-02-07T12:40:46.415Z,8.03
2018-02-07T12:41:50.647Z,8.56
2018-02-07T12:42:54.272Z,8.94
2018-02-07T12:43:58.274Z,8.97
2018-02-07T12:45:01.359Z,9.00
2018-02-07T12:46:04.613Z,9.05
2018-02-07T12:47:08.244Z,8.69
2018-02-07T12:48:12.184Z,8.69
2018-02-07T12:49:15.106Z,8.69
2018-02-07T12:50:18.545Z,8.65
2018-02-07T12:51:22.992Z,8.47
2018-02-07T12:52:27.871Z,8.82
2018-02-07T12:53:32.082Z,9.40
2018-02-07T12:54:35.022Z,9.52
2018-02-07T12:55:38.063Z,9.67
2018-02-07T12:56:42.556Z,9.77
2018-02-07T12:57:45.544Z,9.98
2018-02-07T12:58:48.556Z,9.51
2018-02-07T12:59:51.570Z,9.58
2018-02-07T13:00:55.018Z,9.91
2018-02-07T13:01:58.866Z,10.00
2018-02-07T13:03:04.321Z,10.03
2018-02-07T13:04:08.276Z,9.90
2018-02-07T13:05:12.287Z,10.09
2018-02-07T13:06:17.682Z,10.22
2018-02-07T13:07:22.265Z,10.69
2018-02-07T13:08:26.237Z,10.93
2018-02-07T13:09:32.540Z,10.95
2018-02-07T13:10:35.659Z,10.85
2018-02-07T13:11:39.990Z,10.67
2018-02-07T13:12:43.209Z,10.41
2018-02-07T13:13:48.095Z,10.48
2018-02-07T13:14:53.763Z,10.70
2018-02-07T13:15:58.016Z,10.53
2018-02-07T13:17:03.286Z,10.31
2018-02-07T13:18:10.917Z,10.51
2018-02-07T13:19:16.074Z,11.35
2018-02-07T13:20:20.453Z,10.99
2018-02-07T13:21:25.644Z,10.67
2018-02-07T13:22:31.168Z,10.48
2018-02-07T13:23:36.051Z,10.53
2018-02-07T13:24:40.574Z,10.94
2018-02-07T13:25:46.682Z,10.85
2018-02-07T13:26:51.874Z,10.26
2018-02-07T13:27:56.879Z,10.22
2018-02-07T13:29:01.982Z,10.76
2018-02-07T13:30:05.303Z,11.19
2018-02-07T13:31:08.406Z,10.83
2018-02-07T13:32:12.876Z,10.46
2018-02-07T13:33:17.704Z,10.65
2018-02-07T13:34:22.011Z,10.82
2018-02-07T13:35:26.049Z,10.86
2018-02-07T13:36:30.213Z,10.95
2018-02-07T13:37:34.080Z,11.11
2018-02-07T13:38:37.505Z,11.26
2018-02-07T13:39:40.891Z,11.17
2018-02-07T13:40:44.950Z,10.49
2018-02-07T13:41:49.187Z,9.89
2018-02-07T13:42:53.191Z,10.13
2018-02-07T13:43:57.527Z,9.86